createdAt,value
2023-02-17T00:04:33.051Z,93.06
2023-02-17T00:09:34.874Z,92.85
2023-02-17T00:14:36.492Z,92.96
2023-02-17T00:19:38.081Z,93.02
2023-02-17T00:24:41.082Z,92.50
2023-02-17T00:29:42.760Z,92.59
2023-02-17T00:34:44.694Z,92.74
2023-02-17T00:39:46.455Z,92.46
2023-02-17T00:44:48.108Z,92.75
2023-02-17T00:49:49.694Z,92.54
2023-02-17T00:54:51.352Z,92.39
2023-02-17T00:59:52.965Z,92.65
2023-02-17T01:04:54.682Z,92.72
2023-02-17T01:09:56.389Z,93.01
2023-02-17T01:14:57.975Z,92.74
2023-02-17T01:19:59.791Z,92.97
2023-02-17T01:25:01.454Z,93.01
2023-02-17T01:30:05.209Z,93.38
2023-02-17T01:35:07.544Z,93.31
2023-02-17T01:40:12.940Z,93.31
2023-02-17T01:45:17.715Z,93.36
2023-02-17T01:50:22.460Z,93.52
2023-02-17T01:55:25.345Z,93.30
2023-02-17T02:00:32.250Z,93.18
2023-02-17T02:05:36.611Z,93.35
2023-02-17T02:10:39.258Z,93.76
2023-02-17T02:15:50.853Z,93.83
2023-02-17T02:21:29.487Z,95.96
2023-02-17T02:26:37.377Z,96.22
2023-02-17T02:31:45.133Z,95.69
2023-02-17T02:36:56.647Z,95.41
2023-02-17T02:42:03.909Z,95.16
2023-02-17T02:47:27.559Z,94.64
2023-02-17T02:52:42.683Z,96.28
2023-02-17T02:57:50.066Z,94.95
2023-02-17T03:02:58.609Z,95.27
2023-02-17T03:08:06.618Z,95.48
2023-02-17T03:13:08.367Z,95.00
2023-02-17T03:18:11.838Z,95.02
2023-02-17T03:23:15.523Z,95.10
2023-02-17T03:28:18.538Z,94.91
2023-02-17T03:33:21.326Z,95.29
2023-02-17T03:38:23.171Z,95.17
2023-02-17T03:43:24.880Z,96.21
2023-02-17T03:48:26.684Z,95.76
2023-02-17T03:53:28.319Z,95.62
2023-02-17T03:58:29.957Z,95.39
2023-02-17T04:03:31.759Z,95.26
2023-02-17T04:08:33.644Z,95.22
2023-02-17T04:13:35.820Z,95.24
2023-02-17T04:18:38.494Z,95.28
2023-02-17T04:23:40.308Z,94.83
2023-02-17T04:28:43.957Z,95.12
2023-02-17T04:33:45.686Z,95.88
2023-02-17T04:38:47.313Z,95.44
2023-02-17T04:43:48.912Z,95.27
2023-02-17T04:48:50.543Z,95.08
2023-02-17T04:53:52.148Z,95.05
2023-02-17T04:58:53.911Z,95.41
2023-02-17T05:03:55.471Z,95.16
2023-02-17T05:08:57.179Z,95.09
2023-02-17T05:13:58.780Z,94.50
2023-02-17T05:19:00.428Z,94.49
2023-02-17T05:24:02.460Z,94.37
2023-02-17T05:29:04.099Z,94.13
2023-02-17T05:34:05.912Z,94.41
2023-02-17T05:39:09.028Z,94.15
2023-02-17T05:44:10.699Z,94.06
2023-02-17T05:49:12.349Z,93.76
2023-02-17T05:54:13.981Z,93.00
2023-02-17T05:59:15.720Z,92.99
2023-02-17T06:04:17.409Z,92.55
2023-02-17T06:09:19.073Z,92.69
2023-02-17T06:14:20.715Z,93.29
2023-02-17T06:19:23.623Z,93.07
2023-02-17T06:24:25.278Z,93.28
2023-02-17T06:29:27.817Z,93.09
2023-02-17T06:34:29.401Z,93.00
2023-02-17T06:39:31.215Z,93.26
2023-02-17T06:44:32.835Z,92.34
2023-02-17T06:49:34.470Z,91.46
2023-02-17T06:54:36.080Z,91.14
2023-02-17T06:59:37.919Z,91.27
2023-02-17T07:04:42.473Z,91.17
2023-02-17T07:09:44.141Z,91.16
2023-02-17T07:14:45.782Z,90.86
2023-02-17T07:19:47.648Z,90.16
2023-02-17T07:24:49.260Z,90.35
2023-02-17T07:29:50.942Z,90.00
2023-02-17T07:34:52.567Z,90.58
2023-02-17T07:39:54.319Z,90.54
2023-02-17T07:44:55.911Z,90.15
2023-02-17T07:49:57.499Z,89.74
2023-02-17T07:54:59.336Z,88.96
2023-02-17T08:00:01.491Z,88.77
2023-02-17T08:05:03.328Z,88.40
2023-02-17T08:10:24.321Z,88.24
2023-02-17T08:15:25.955Z,88.32
2023-02-17T08:20:28.097Z,88.14
2023-02-17T08:25:34.856Z,87.78
2023-02-17T08:30:37.045Z,88.14
2023-02-17T08:35:38.709Z,88.12
2023-02-17T08:40:40.395Z,86.82
2023-02-17T08:45:42.144Z,86.62
2023-02-17T08:50:46.705Z,86.04
2023-02-17T08:55:49.725Z,84.74
2023-02-17T09:00:52.119Z,84.85
2023-02-17T09:05:57.725Z,83.52
2023-02-17T09:10:59.525Z,83.70
2023-02-17T09:16:01.746Z,83.67
2023-02-17T09:21:09.253Z,82.32
2023-02-17T09:26:12.690Z,82.58
2023-02-17T09:31:21.057Z,81.58
2023-02-17T09:36:26.185Z,81.34
2023-02-17T09:41:38.277Z,81.64
2023-02-17T09:47:01.796Z,82.18
2023-02-17T09:52:27.684Z,83.13
2023-02-17T09:57:34.370Z,83.39
2023-02-17T10:03:00.602Z,84.31
2023-02-17T10:08:14.915Z,85.63
2023-02-17T10:13:20.184Z,89.66
2023-02-17T10:18:33.284Z,89.39
2023-02-17T10:23:35.190Z,89.44
2023-02-17T10:28:55.382Z,88.96
2023-02-17T10:34:05.772Z,87.62
2023-02-17T10:39:24.642Z,86.42
2023-02-17T10:44:26.385Z,84.85
2023-02-17T10:49:40.028Z,81.46
2023-02-17T10:54:50.949Z,81.52
2023-02-17T10:59:52.573Z,80.25
2023-02-17T11:04:59.822Z,79.80
2023-02-17T11:10:19.761Z,79.38
2023-02-17T11:15:26.045Z,76.74
2023-02-17T11:20:33.627Z,76.36
2023-02-17T11:25:37.817Z,75.87
2023-02-17T11:30:48.825Z,75.99
2023-02-17T11:35:54.984Z,75.14
2023-02-17T11:41:07.642Z,73.64
2023-02-17T11:46:15.310Z,73.46
2023-02-17T11:51:27.561Z,72.99
2023-02-17T11:56:46.656Z,72.24
2023-02-17T12:02:08.472Z,72.50
2023-02-17T12:07:29.271Z,72.47
2023-02-17T12:12:39.650Z,70.58
2023-02-17T12:18:00.167Z,71.12
2023-02-17T12:23:29.687Z,71.51
2023-02-17T12:28:49.752Z,70.53
2023-02-17T12:34:03.877Z,71.36
2023-02-17T12:39:42.180Z,71.20
2023-02-17T12:44:49.534Z,70.68
2023-02-17T12:50:15.274Z,70.20
2023-02-17T12:55:22.054Z,70.96
2023-02-17T13:00:42.202Z,70.27
2023-02-17T13:06:30.265Z,71.37
2023-02-17T13:11:36.061Z,72.03
2023-02-17T13:16:45.807Z,72.66
2023-02-17T13:21:56.166Z,72.58
2023-02-17T13:26:57.843Z,72.67
2023-02-17T13:32:02.522Z,72.40
2023-02-17T13:37:33.795Z,73.50
2023-02-17T13:42:41.512Z,73.39
2023-02-17T13:47:44.696Z,74.22
2023-02-17T13:52:46.341Z,74.44
2023-02-17T13:57:53.094Z,73.96
2023-02-17T14:02:59.123Z,74.55
2023-02-17T14:08:06.674Z,74.53
2023-02-17T14:13:13.262Z,74.37
2023-02-17T14:18:16.807Z,74.82
2023-02-17T14:23:18.374Z,74.88
2023-02-17T14:28:25.908Z,74.37
2023-02-17T14:33:27.522Z,74.86
2023-02-17T14:38:42.311Z,74.68
2023-02-17T14:43:43.919Z,74.71
2023-02-17T14:48:50.240Z,74.18
2023-02-17T14:53:52.853Z,74.42
2023-02-17T14:58:54.583Z,73.38
2023-02-17T15:03:56.406Z,73.79
2023-02-17T15:08:58.071Z,74.32
2023-02-17T15:14:00.330Z,74.21
2023-02-17T15:19:01.931Z,73.70
2023-02-17T15:24:16.004Z,73.63
2023-02-17T15:29:23.228Z,72.53
2023-02-17T15:34:32.207Z,71.65
2023-02-17T15:39:33.783Z,70.51
2023-02-17T15:44:43.155Z,70.89
2023-02-17T15:49:44.971Z,70.82
2023-02-17T15:54:48.268Z,70.22
2023-02-17T15:59:50.598Z,70.73
2023-02-17T16:04:52.222Z,69.44
2023-02-17T16:09:54.668Z,69.25
2023-02-17T16:14:57.476Z,70.07
2023-02-17T16:19:59.114Z,69.41
2023-02-17T16:25:01.008Z,68.48
2023-02-17T16:30:05.626Z,68.68
2023-02-17T16:35:07.457Z,68.21
2023-02-17T16:40:19.795Z,68.84
2023-02-17T16:45:24.771Z,69.03
2023-02-17T16:50:31.212Z,69.65
2023-02-17T16:55:34.838Z,69.43
2023-02-17T17:00:36.706Z,70.08
2023-02-17T17:05:39.480Z,69.76
2023-02-17T17:10:41.916Z,70.30
2023-02-17T17:15:45.337Z,70.61
2023-02-17T17:20:47.714Z,70.70
2023-02-17T17:25:49.543Z,70.36
2023-02-17T17:30:51.388Z,70.01
2023-02-17T17:35:53.608Z,70.40
2023-02-17T17:40:56.926Z,70.56
2023-02-17T17:45:58.862Z,71.35
2023-02-17T17:51:00.535Z,71.56
2023-02-17T17:56:02.261Z,71.68
2023-02-17T18:01:03.966Z,71.90
2023-02-17T18:06:08.787Z,72.32
2023-02-17T18:11:11.699Z,72.36
2023-02-17T18:16:14.533Z,72.87
2023-02-17T18:21:16.682Z,72.56
2023-02-17T18:26:18.613Z,73.05
2023-02-17T18:31:20.664Z,73.22
2023-02-17T18:36:26.028Z,73.21
2023-02-17T18:41:30.514Z,73.87
2023-02-17T18:46:33.767Z,73.85
2023-02-17T18:51:35.765Z,74.31
2023-02-17T18:56:38.027Z,74.36
2023-02-17T19:01:40.962Z,75.06
2023-02-17T19:06:43.168Z,75.61
2023-02-17T19:11:44.817Z,75.70
2023-02-17T19:16:46.392Z,75.71
2023-02-17T19:21:48.407Z,75.83
2023-02-17T19:26:50.249Z,75.70
2023-02-17T19:31:52.057Z,75.92
2023-02-17T19:36:54.002Z,75.76
2023-02-17T19:41:55.620Z,75.02
2023-02-17T19:46:57.537Z,75.19
2023-02-17T19:51:59.527Z,75.40
2023-02-17T19:57:01.144Z,74.53
2023-02-17T20:02:02.927Z,74.51
2023-02-17T20:07:04.584Z,74.10
2023-02-17T20:12:06.484Z,74.15
2023-02-17T20:17:08.332Z,74.24
2023-02-17T20:22:10.253Z,74.98
2023-02-17T20:27:11.896Z,74.82
2023-02-17T20:32:13.888Z,75.22
2023-02-17T20:37:15.808Z,75.21
2023-02-17T20:42:17.438Z,75.62
2023-02-17T20:47:19.039Z,75.77
2023-02-17T20:52:20.924Z,75.77
2023-02-17T20:57:23.418Z,75.90
2023-02-17T21:02:25.236Z,76.71
2023-02-17T21:07:26.926Z,76.36
2023-02-17T21:12:28.771Z,76.53
2023-02-17T21:17:30.384Z,76.70
2023-02-17T21:22:32.148Z,76.91
2023-02-17T21:27:34.372Z,76.77
2023-02-17T21:32:36.170Z,77.12
2023-02-17T21:37:41.236Z,76.97
2023-02-17T21:43:01.738Z,77.30
2023-02-17T21:48:04.291Z,77.47
2023-02-17T21:53:05.917Z,77.01
2023-02-17T21:58:07.482Z,77.56
2023-02-17T22:03:09.064Z,77.73
2023-02-17T22:08:10.691Z,77.87
2023-02-17T22:13:12.497Z,77.84
2023-02-17T22:18:14.272Z,77.76
2023-02-17T22:23:15.875Z,77.70
2023-02-17T22:28:17.565Z,77.51
2023-02-17T22:33:19.334Z,77.57
2023-02-17T22:38:20.928Z,77.75
2023-02-17T22:43:22.828Z,77.21
2023-02-17T22:48:24.742Z,77.35
2023-02-17T22:53:26.317Z,77.60
2023-02-17T22:58:28.668Z,77.58
2023-02-17T23:03:30.445Z,77.10
2023-02-17T23:08:32.195Z,77.26
2023-02-17T23:13:35.974Z,77.47
2023-02-17T23:18:38.811Z,77.57
2023-02-17T23:23:40.493Z,77.29
2023-02-17T23:28:42.336Z,77.13
2023-02-17T23:33:43.909Z,77.50
2023-02-17T23:38:45.557Z,77.11
2023-02-17T23:43:47.264Z,77.02
2023-02-17T23:48:48.999Z,77.26
2023-02-17T23:53:50.624Z,76.93
2023-02-17T23:58:52.247Z,76.45
